sensor_id;sensor_type;location;lat;lon;timestamp;pressure;altitude;pressure_sealevel;temperature;humidity
21828;BME280;11076;47.942;11.804;2022-12-20T00:03:31;94985.09;;;0.72;100.00
21828;BME280;11076;47.942;11.804;2022-12-20T00:08:33;94995.38;;;0.66;100.00
21828;BME280;11076;47.942;11.804;2022-12-20T00:13:36;95006.88;;;0.65;100.00
21828;BME280;11076;47.942;11.804;2022-12-20T00:18:40;95009.22;;;0.68;100.00
21828;BME280;11076;47.942;11.804;2022-12-20T00:23:42;94996.78;;;0.50;100.00
21828;BME280;11076;47.942;11.804;2022-12-20T00:28:45;95002.88;;;0.51;100.00
21828;BME280;11076;47.942;11.804;2022-12-20T00:33:49;94997.88;;;0.57;100.00
21828;BME280;11076;47.942;11.804;2022-12-20T00:38:53;94992.03;;;0.64;100.00
21828;BME280;11076;47.942;11.804;2022-12-20T00:43:56;94992.03;;;0.64;100.00
21828;BME280;11076;47.942;11.804;2022-12-20T00:48:59;94989.13;;;0.67;100.00
21828;BME280;11076;47.942;11.804;2022-12-20T00:54:01;94979.00;;;0.72;100.00
21828;BME280;11076;47.942;11.804;2022-12-20T00:59:03;94984.28;;;0.72;100.00
21828;BME280;11076;47.942;11.804;2022-12-20T01:04:06;94983.84;;;0.76;100.00
21828;BME280;11076;47.942;11.804;2022-12-20T01:09:10;94989.81;;;0.69;100.00
21828;BME280;11076;47.942;11.804;2022-12-20T01:14:14;95003.69;;;0.61;100.00
21828;BME280;11076;47.942;11.804;2022-12-20T01:19:17;94997.63;;;0.51;100.00
21828;BME280;11076;47.942;11.804;2022-12-20T01:24:20;94987.38;;;0.48;100.00
21828;BME280;11076;47.942;11.804;2022-12-20T01:29:22;94989.00;;;0.58;100.00
21828;BME280;11076;47.942;11.804;2022-12-20T01:34:25;94993.03;;;0.63;100.00
21828;BME280;11076;47.942;11.804;2022-12-20T01:39:27;94978.88;;;0.64;100.00
21828;BME280;11076;47.942;11.804;2022-12-20T01:49:39;94965.34;;;0.58;100.00
21828;BME280;11076;47.942;11.804;2022-12-20T01:54:53;94961.16;;;0.66;100.00
21828;BME280;11076;47.942;11.804;2022-12-20T01:59:56;94968.19;;;0.75;100.00
21828;BME280;11076;47.942;11.804;2022-12-20T02:04:59;94967.38;;;0.65;100.00
21828;BME280;11076;47.942;11.804;2022-12-20T02:10:05;94962.81;;;0.67;100.00
21828;BME280;11076;47.942;11.804;2022-12-20T02:31:02;94944.00;;;0.89;100.00
21828;BME280;11076;47.942;11.804;2022-12-20T02:36:07;94943.50;;;0.86;100.00
21828;BME280;11076;47.942;11.804;2022-12-20T02:41:11;94945.16;;;0.77;100.00
21828;BME280;11076;47.942;11.804;2022-12-20T02:46:18;94942.16;;;0.72;100.00
21828;BME280;11076;47.942;11.804;2022-12-20T02:51:22;94949.75;;;0.75;100.00
21828;BME280;11076;47.942;11.804;2022-12-20T02:56:54;94944.97;;;0.61;100.00
21828;BME280;11076;47.942;11.804;2022-12-20T03:01:59;94951.63;;;0.55;100.00
21828;BME280;11076;47.942;11.804;2022-12-20T03:12:05;94937.25;;;0.49;100.00
21828;BME280;11076;47.942;11.804;2022-12-20T03:17:10;94940.16;;;0.46;100.00
21828;BME280;11076;47.942;11.804;2022-12-20T03:22:12;94923.84;;;0.43;100.00
21828;BME280;11076;47.942;11.804;2022-12-20T03:27:15;94942.63;;;0.48;100.00
21828;BME280;11076;47.942;11.804;2022-12-20T03:32:18;94934.91;;;0.84;100.00
21828;BME280;11076;47.942;11.804;2022-12-20T03:37:21;94944.81;;;0.99;100.00
21828;BME280;11076;47.942;11.804;2022-12-20T03:42:25;94942.78;;;1.11;100.00
21828;BME280;11076;47.942;11.804;2022-12-20T03:47:27;94940.69;;;1.15;100.00
21828;BME280;11076;47.942;11.804;2022-12-20T03:52:30;94926.00;;;1.12;100.00
21828;BME280;11076;47.942;11.804;2022-12-20T03:57:33;94909.06;;;1.15;100.00
21828;BME280;11076;47.942;11.804;2022-12-20T04:02:36;94896.66;;;1.25;100.00
21828;BME280;11076;47.942;11.804;2022-12-20T04:07:38;94897.81;;;1.23;100.00
21828;BME280;11076;47.942;11.804;2022-12-20T04:12:41;94912.47;;;1.25;100.00
21828;BME280;11076;47.942;11.804;2022-12-20T04:17:45;94908.19;;;1.24;100.00
21828;BME280;11076;47.942;11.804;2022-12-20T04:22:50;94896.00;;;1.23;100.00
21828;BME280;11076;47.942;11.804;2022-12-20T04:27:53;94904.28;;;1.28;100.00
21828;BME280;11076;47.942;11.804;2022-12-20T04:32:55;94910.78;;;1.34;100.00
21828;BME280;11076;47.942;11.804;2022-12-20T04:38:00;94910.84;;;1.24;100.00
21828;BME280;11076;47.942;11.804;2022-12-20T04:43:02;94899.41;;;1.33;100.00
21828;BME280;11076;47.942;11.804;2022-12-20T04:48:05;94898.41;;;1.34;100.00
21828;BME280;11076;47.942;11.804;2022-12-20T04:53:22;94898.88;;;1.30;100.00
21828;BME280;11076;47.942;11.804;2022-12-20T04:58:45;94900.97;;;1.26;100.00
21828;BME280;11076;47.942;11.804;2022-12-20T05:03:48;94904.03;;;1.04;100.00
21828;BME280;11076;47.942;11.804;2022-12-20T05:08:51;94895.53;;;1.10;100.00
21828;BME280;11076;47.942;11.804;2022-12-20T05:13:54;94874.31;;;1.11;100.00
21828;BME280;11076;47.942;11.804;2022-12-20T05:18:57;94873.25;;;1.04;100.00
21828;BME280;11076;47.942;11.804;2022-12-20T05:23:59;94869.69;;;0.95;100.00
21828;BME280;11076;47.942;11.804;2022-12-20T05:29:33;94860.59;;;0.90;100.00
21828;BME280;11076;47.942;11.804;2022-12-20T05:34:35;94861.28;;;0.92;100.00
21828;BME280;11076;47.942;11.804;2022-12-20T05:39:38;94865.56;;;0.93;100.00
21828;BME280;11076;47.942;11.804;2022-12-20T05:44:45;94850.88;;;0.90;100.00
21828;BME280;11076;47.942;11.804;2022-12-20T05:49:49;94849.22;;;0.89;100.00
21828;BME280;11076;47.942;11.804;2022-12-20T05:54:51;94854.38;;;1.09;100.00
21828;BME280;11076;47.942;11.804;2022-12-20T05:59:57;94846.63;;;1.25;100.00
21828;BME280;11076;47.942;11.804;2022-12-20T06:04:59;94828.28;;;1.15;100.00
21828;BME280;11076;47.942;11.804;2022-12-20T06:10:03;94828.94;;;0.99;100.00
21828;BME280;11076;47.942;11.804;2022-12-20T06:15:23;94825.91;;;0.94;100.00
21828;BME280;11076;47.942;11.804;2022-12-20T06:20:26;94835.97;;;0.81;100.00
21828;BME280;11076;47.942;11.804;2022-12-20T06:25:32;94833.84;;;0.67;100.00
21828;BME280;11076;47.942;11.804;2022-12-20T06:30:34;94835.75;;;0.74;100.00
21828;BME280;11076;47.942;11.804;2022-12-20T06:35:41;94843.94;;;0.89;100.00
21828;BME280;11076;47.942;11.804;2022-12-20T06:40:43;94828.50;;;1.04;100.00
21828;BME280;11076;47.942;11.804;2022-12-20T06:45:46;94839.38;;;0.91;100.00
21828;BME280;11076;47.942;11.804;2022-12-20T06:50:48;94831.66;;;0.90;100.00
21828;BME280;11076;47.942;11.804;2022-12-20T06:55:55;94834.50;;;0.96;100.00
21828;BME280;11076;47.942;11.804;2022-12-20T07:00:58;94831.94;;;1.05;100.00
21828;BME280;11076;47.942;11.804;2022-12-20T07:06:01;94822.91;;;1.07;100.00
21828;BME280;11076;47.942;11.804;2022-12-20T07:11:05;94821.94;;;1.08;100.00
21828;BME280;11076;47.942;11.804;2022-12-20T07:16:07;94811.34;;;1.18;100.00
21828;BME280;11076;47.942;11.804;2022-12-20T07:21:10;94825.41;;;1.27;100.00
21828;BME280;11076;47.942;11.804;2022-12-20T07:26:13;94824.25;;;1.29;100.00
21828;BME280;11076;47.942;11.804;2022-12-20T07:31:15;94817.13;;;1.39;100.00
21828;BME280;11076;47.942;11.804;2022-12-20T07:36:18;94823.28;;;1.48;100.00
21828;BME280;11076;47.942;11.804;2022-12-20T07:41:21;94826.31;;;1.53;100.00
21828;BME280;11076;47.942;11.804;2022-12-20T07:46:23;94827.66;;;1.57;100.00
21828;BME280;11076;47.942;11.804;2022-12-20T07:51:32;94832.63;;;1.87;100.00
21828;BME280;11076;47.942;11.804;2022-12-20T07:56:38;94836.44;;;2.18;100.00
21828;BME280;11076;47.942;11.804;2022-12-20T08:01:44;94837.88;;;2.39;100.00
21828;BME280;11076;47.942;11.804;2022-12-20T08:06:47;94835.84;;;2.59;100.00
21828;BME280;11076;47.942;11.804;2022-12-20T08:11:51;94816.59;;;2.83;100.00
21828;BME280;11076;47.942;11.804;2022-12-20T08:16:54;94820.44;;;2.97;100.00
21828;BME280;11076;47.942;11.804;2022-12-20T08:21:56;94813.03;;;3.01;100.00
21828;BME280;11076;47.942;11.804;2022-12-20T08:26:59;94823.78;;;3.24;100.00
21828;BME280;11076;47.942;11.804;2022-12-20T08:32:01;94809.41;;;3.26;100.00
21828;BME280;11076;47.942;11.804;2022-12-20T08:37:04;94812.75;;;3.45;100.00
21828;BME280;11076;47.942;11.804;2022-12-20T08:42:09;94805.16;;;3.66;100.00
21828;BME280;11076;47.942;11.804;2022-12-20T08:47:11;94807.59;;;3.68;100.00
21828;BME280;11076;47.942;11.804;2022-12-20T08:52:13;94806.78;;;3.67;100.00
21828;BME280;11076;47.942;11.804;2022-12-20T08:57:16;94802.97;;;3.62;100.00
21828;BME280;11076;47.942;11.804;2022-12-20T09:02:18;94798.19;;;3.65;100.00
21828;BME280;11076;47.942;11.804;2022-12-20T09:07:21;94808.78;;;3.57;100.00
21828;BME280;11076;47.942;11.804;2022-12-20T09:12:23;94808.09;;;3.71;100.00
21828;BME280;11076;47.942;11.804;2022-12-20T09:17:25;94811.91;;;3.77;100.00
21828;BME280;11076;47.942;11.804;2022-12-20T09:22:28;94799.16;;;3.97;100.00
21828;BME280;11076;47.942;11.804;2022-12-20T09:27:30;94791.81;;;4.24;100.00
21828;BME280;11076;47.942;11.804;2022-12-20T09:32:33;94791.25;;;4.45;100.00
21828;BME280;11076;47.942;11.804;2022-12-20T09:37:35;94791.53;;;4.58;100.00
21828;BME280;11076;47.942;11.804;2022-12-20T09:42:38;94783.19;;;4.77;100.00
21828;BME280;11076;47.942;11.804;2022-12-20T09:47:40;94779.91;;;4.98;100.00
21828;BME280;11076;47.942;11.804;2022-12-20T09:53:09;94781.25;;;4.94;100.00
21828;BME280;11076;47.942;11.804;2022-12-20T09:58:57;94764.44;;;5.33;100.00
21828;BME280;11076;47.942;11.804;2022-12-20T10:04:06;94768.47;;;5.67;100.00
21828;BME280;11076;47.942;11.804;2022-12-20T10:15:18;94748.84;;;5.91;100.00
21828;BME280;11076;47.942;11.804;2022-12-20T10:25:40;94734.72;;;6.29;100.00
21828;BME280;11076;47.942;11.804;2022-12-20T10:30:43;94729.63;;;5.89;99.71
21828;BME280;11076;47.942;11.804;2022-12-20T10:35:46;94726.41;;;5.41;98.58
21828;BME280;11076;47.942;11.804;2022-12-20T10:41:01;94719.13;;;5.43;97.96
21828;BME280;11076;47.942;11.804;2022-12-20T10:46:21;94725.72;;;6.00;97.90
21828;BME280;11076;47.942;11.804;2022-12-20T10:51:25;94709.88;;;6.07;98.99
21828;BME280;11076;47.942;11.804;2022-12-20T10:56:30;94705.31;;;6.01;98.40
21828;BME280;11076;47.942;11.804;2022-12-20T11:01:35;94700.06;;;5.77;98.27
21828;BME280;11076;47.942;11.804;2022-12-20T11:06:41;94686.25;;;5.82;97.96
21828;BME280;11076;47.942;11.804;2022-12-20T11:12:11;94667.72;;;5.97;97.84
21828;BME280;11076;47.942;11.804;2022-12-20T11:17:36;94665.78;;;6.06;98.01
21828;BME280;11076;47.942;11.804;2022-12-20T11:38:54;94643.25;;;5.72;97.54
21828;BME280;11076;47.942;11.804;2022-12-20T11:55:18;94621.66;;;5.60;95.70
21828;BME280;11076;47.942;11.804;2022-12-20T12:00:23;94615.06;;;5.56;95.80
21828;BME280;11076;47.942;11.804;2022-12-20T12:05:31;94612.59;;;5.40;96.78
21828;BME280;11076;47.942;11.804;2022-12-20T12:10:41;94595.84;;;5.24;97.22
21828;BME280;11076;47.942;11.804;2022-12-20T12:16:16;94580.75;;;5.10;97.94
21828;BME280;11076;47.942;11.804;2022-12-20T12:21:48;94574.75;;;4.93;98.76
21828;BME280;11076;47.942;11.804;2022-12-20T12:26:53;94568.63;;;4.77;99.63
21828;BME280;11076;47.942;11.804;2022-12-20T12:32:06;94564.66;;;4.73;100.00
21828;BME280;11076;47.942;11.804;2022-12-20T12:42:55;94566.97;;;4.76;100.00
21828;BME280;11076;47.942;11.804;2022-12-20T12:58:31;94576.97;;;5.04;100.00
21828;BME280;11076;47.942;11.804;2022-12-20T13:19:35;94555.44;;;5.22;100.00
21828;BME280;11076;47.942;11.804;2022-12-20T13:24:58;94556.81;;;5.18;99.49
21828;BME280;11076;47.942;11.804;2022-12-20T13:40:45;94538.91;;;3.98;100.00
21828;BME280;11076;47.942;11.804;2022-12-20T13:45:56;94539.63;;;4.15;100.00
21828;BME280;11076;47.942;11.804;2022-12-20T13:51:02;94535.16;;;4.38;100.00
21828;BME280;11076;47.942;11.804;2022-12-20T14:01:29;94541.38;;;4.23;100.00
21828;BME280;11076;47.942;11.804;2022-12-20T14:06:32;94523.63;;;4.08;100.00
21828;BME280;11076;47.942;11.804;2022-12-20T14:11:45;94522.66;;;4.01;100.00
21828;BME280;11076;47.942;11.804;2022-12-20T14:16:48;94511.97;;;4.17;100.00
21828;BME280;11076;47.942;11.804;2022-12-20T14:21:50;94516.31;;;4.33;100.00
21828;BME280;11076;47.942;11.804;2022-12-20T14:26:53;94500.09;;;4.36;100.00
21828;BME280;11076;47.942;11.804;2022-12-20T14:31:56;94472.41;;;4.24;100.00
21828;BME280;11076;47.942;11.804;2022-12-20T14:37:36;94477.03;;;3.99;100.00
21828;BME280;11076;47.942;11.804;2022-12-20T14:42:40;94478.91;;;3.67;100.00
21828;BME280;11076;47.942;11.804;2022-12-20T14:53:21;94479.41;;;3.31;100.00
21828;BME280;11076;47.942;11.804;2022-12-20T15:03:27;94471.34;;;2.77;100.00
21828;BME280;11076;47.942;11.804;2022-12-20T15:08:31;94487.88;;;2.54;100.00
21828;BME280;11076;47.942;11.804;2022-12-20T15:13:39;94476.69;;;2.28;100.00
21828;BME280;11076;47.942;11.804;2022-12-20T15:18:42;94485.59;;;2.10;100.00
21828;BME280;11076;47.942;11.804;2022-12-20T15:23:48;94477.84;;;2.09;100.00
21828;BME280;11076;47.942;11.804;2022-12-20T15:28:52;94482.94;;;1.94;100.00
21828;BME280;11076;47.942;11.804;2022-12-20T15:33:55;94472.41;;;2.02;100.00
21828;BME280;11076;47.942;11.804;2022-12-20T15:39:01;94468.44;;;2.06;100.00
21828;BME280;11076;47.942;11.804;2022-12-20T15:44:15;94456.06;;;2.07;100.00
21828;BME280;11076;47.942;11.804;2022-12-20T15:49:23;94451.00;;;2.05;100.00
21828;BME280;11076;47.942;11.804;2022-12-20T15:54:34;94442.72;;;1.92;100.00
21828;BME280;11076;47.942;11.804;2022-12-20T15:59:37;94443.75;;;1.99;100.00
21828;BME280;11076;47.942;11.804;2022-12-20T16:05:00;94435.31;;;2.20;100.00
21828;BME280;11076;47.942;11.804;2022-12-20T16:10:03;94444.88;;;2.21;100.00
21828;BME280;11076;47.942;11.804;2022-12-20T16:15:16;94445.03;;;2.28;100.00
21828;BME280;11076;47.942;11.804;2022-12-20T16:20:20;94446.03;;;2.35;100.00
21828;BME280;11076;47.942;11.804;2022-12-20T16:25:35;94437.91;;;2.45;100.00
21828;BME280;11076;47.942;11.804;2022-12-20T16:30:38;94446.50;;;2.47;100.00
21828;BME280;11076;47.942;11.804;2022-12-20T16:35:41;94435.75;;;2.65;100.00
21828;BME280;11076;47.942;11.804;2022-12-20T16:40:43;94440.03;;;2.57;100.00
21828;BME280;11076;47.942;11.804;2022-12-20T16:45:45;94430.16;;;2.51;100.00
21828;BME280;11076;47.942;11.804;2022-12-20T16:50:48;94446.66;;;2.45;100.00
21828;BME280;11076;47.942;11.804;2022-12-20T16:55:50;94436.75;;;2.55;100.00
21828;BME280;11076;47.942;11.804;2022-12-20T17:00:52;94441.88;;;2.49;100.00
21828;BME280;11076;47.942;11.804;2022-12-20T17:05:55;94425.88;;;2.42;100.00
21828;BME280;11076;47.942;11.804;2022-12-20T17:10:58;94439.41;;;2.39;100.00
21828;BME280;11076;47.942;11.804;2022-12-20T17:16:00;94445.69;;;2.38;100.00
21828;BME280;11076;47.942;11.804;2022-12-20T17:26:26;94435.97;;;2.06;100.00
21828;BME280;11076;47.942;11.804;2022-12-20T17:31:37;94444.38;;;2.17;100.00
21828;BME280;11076;47.942;11.804;2022-12-20T17:36:40;94449.47;;;2.11;100.00
21828;BME280;11076;47.942;11.804;2022-12-20T17:41:43;94450.31;;;1.95;100.00
21828;BME280;11076;47.942;11.804;2022-12-20T17:46:47;94430.38;;;1.76;100.00
21828;BME280;11076;47.942;11.804;2022-12-20T17:51:49;94434.16;;;1.73;100.00
21828;BME280;11076;47.942;11.804;2022-12-20T17:56:55;94426.56;;;1.70;100.00
21828;BME280;11076;47.942;11.804;2022-12-20T18:02:00;94425.91;;;1.76;100.00
21828;BME280;11076;47.942;11.804;2022-12-20T18:07:02;94428.53;;;1.85;100.00
21828;BME280;11076;47.942;11.804;2022-12-20T18:12:06;94444.88;;;1.88;100.00
21828;BME280;11076;47.942;11.804;2022-12-20T18:17:09;94445.53;;;1.98;100.00
21828;BME280;11076;47.942;11.804;2022-12-20T18:22:12;94451.63;;;2.32;100.00
21828;BME280;11076;47.942;11.804;2022-12-20T18:27:14;94433.44;;;2.62;100.00
21828;BME280;11076;47.942;11.804;2022-12-20T18:32:17;94450.50;;;2.90;100.00
21828;BME280;11076;47.942;11.804;2022-12-20T18:37:19;94429.53;;;2.97;100.00
21828;BME280;11076;47.942;11.804;2022-12-20T18:42:21;94436.31;;;2.91;100.00
21828;BME280;11076;47.942;11.804;2022-12-20T18:47:24;94425.19;;;2.65;100.00
21828;BME280;11076;47.942;11.804;2022-12-20T18:52:26;94424.25;;;2.41;100.00
21828;BME280;11076;47.942;11.804;2022-12-20T18:57:29;94436.78;;;2.14;100.00
21828;BME280;11076;47.942;11.804;2022-12-20T19:02:31;94443.56;;;2.17;100.00
21828;BME280;11076;47.942;11.804;2022-12-20T19:07:34;94427.56;;;2.18;100.00
21828;BME280;11076;47.942;11.804;2022-12-20T19:12:36;94415.31;;;2.42;100.00
21828;BME280;11076;47.942;11.804;2022-12-20T19:17:39;94404.25;;;2.55;100.00
21828;BME280;11076;47.942;11.804;2022-12-20T19:22:41;94402.34;;;2.80;100.00
21828;BME280;11076;47.942;11.804;2022-12-20T19:27:43;94391.09;;;2.86;100.00
21828;BME280;11076;47.942;11.804;2022-12-20T19:32:46;94394.47;;;3.11;100.00
21828;BME280;11076;47.942;11.804;2022-12-20T19:37:48;94390.34;;;3.09;100.00
21828;BME280;11076;47.942;11.804;2022-12-20T19:42:51;94364.16;;;3.22;100.00
21828;BME280;11076;47.942;11.804;2022-12-20T19:47:53;94362.81;;;3.34;100.00
21828;BME280;11076;47.942;11.804;2022-12-20T19:52:55;94360.38;;;3.48;100.00
21828;BME280;11076;47.942;11.804;2022-12-20T19:57:58;94358.94;;;3.68;100.00
21828;BME280;11076;47.942;11.804;2022-12-20T20:03:00;94360.56;;;3.69;100.00
21828;BME280;11076;47.942;11.804;2022-12-20T20:08:03;94362.94;;;3.64;100.00
21828;BME280;11076;47.942;11.804;2022-12-20T20:13:05;94369.25;;;3.55;100.00
21828;BME280;11076;47.942;11.804;2022-12-20T20:18:08;94367.06;;;3.35;100.00
21828;BME280;11076;47.942;11.804;2022-12-20T20:23:11;94369.13;;;3.25;100.00
21828;BME280;11076;47.942;11.804;2022-12-20T20:28:13;94357.25;;;3.21;100.00
21828;BME280;11076;47.942;11.804;2022-12-20T20:33:16;94350.50;;;3.18;100.00
21828;BME280;11076;47.942;11.804;2022-12-20T20:38:18;94348.03;;;3.17;100.00
21828;BME280;11076;47.942;11.804;2022-12-20T20:43:21;94349.38;;;3.13;100.00
21828;BME280;11076;47.942;11.804;2022-12-20T20:48:24;94347.66;;;2.97;100.00
21828;BME280;11076;47.942;11.804;2022-12-20T20:53:26;94360.22;;;2.95;100.00
21828;BME280;11076;47.942;11.804;2022-12-20T20:58:33;94369.84;;;2.79;100.00
21828;BME280;11076;47.942;11.804;2022-12-20T21:03:36;94351.19;;;2.81;100.00
21828;BME280;11076;47.942;11.804;2022-12-20T21:08:38;94337.47;;;2.86;100.00
21828;BME280;11076;47.942;11.804;2022-12-20T21:13:40;94357.91;;;2.92;100.00
21828;BME280;11076;47.942;11.804;2022-12-20T21:18:43;94354.00;;;2.79;100.00
21828;BME280;11076;47.942;11.804;2022-12-20T21:23:45;94339.63;;;2.82;100.00
21828;BME280;11076;47.942;11.804;2022-12-20T21:28:49;94308.63;;;2.76;100.00
21828;BME280;11076;47.942;11.804;2022-12-20T21:33:51;94284.25;;;2.66;100.00
21828;BME280;11076;47.942;11.804;2022-12-20T21:38:55;94305.56;;;2.64;100.00
21828;BME280;11076;47.942;11.804;2022-12-20T21:43:59;94325.47;;;2.75;100.00
21828;BME280;11076;47.942;11.804;2022-12-20T21:49:02;94312.44;;;3.28;100.00
21828;BME280;11076;47.942;11.804;2022-12-20T21:54:04;94321.84;;;3.76;100.00
21828;BME280;11076;47.942;11.804;2022-12-20T21:59:08;94311.19;;;3.99;100.00
21828;BME280;11076;47.942;11.804;2022-12-20T22:04:11;94321.44;;;4.17;100.00
21828;BME280;11076;47.942;11.804;2022-12-20T22:09:14;94310.13;;;4.24;100.00
21828;BME280;11076;47.942;11.804;2022-12-20T22:14:18;94337.59;;;4.23;100.00
21828;BME280;11076;47.942;11.804;2022-12-20T22:19:20;94350.03;;;4.52;100.00
21828;BME280;11076;47.942;11.804;2022-12-20T22:24:22;94358.34;;;4.93;100.00
21828;BME280;11076;47.942;11.804;2022-12-20T22:29:25;94355.28;;;5.11;100.00
21828;BME280;11076;47.942;11.804;2022-12-20T22:34:27;94354.56;;;5.03;100.00
21828;BME280;11076;47.942;11.804;2022-12-20T22:39:30;94354.38;;;5.04;100.00
21828;BME280;11076;47.942;11.804;2022-12-20T22:44:32;94347.88;;;5.07;99.68
21828;BME280;11076;47.942;11.804;2022-12-20T22:49:34;94339.72;;;4.72;100.00
21828;BME280;11076;47.942;11.804;2022-12-20T22:54:36;94334.59;;;4.55;100.00
21828;BME280;11076;47.942;11.804;2022-12-20T22:59:39;94317.81;;;4.48;100.00
21828;BME280;11076;47.942;11.804;2022-12-20T23:04:41;94321.84;;;4.44;100.00
21828;BME280;11076;47.942;11.804;2022-12-20T23:09:44;94298.81;;;4.45;100.00
21828;BME280;11076;47.942;11.804;2022-12-20T23:14:46;94300.03;;;4.42;100.00
21828;BME280;11076;47.942;11.804;2022-12-20T23:20:07;94312.88;;;4.45;100.00
21828;BME280;11076;47.942;11.804;2022-12-20T23:25:28;94338.06;;;4.41;100.00
21828;BME280;11076;47.942;11.804;2022-12-20T23:30:31;94336.91;;;4.44;100.00
21828;BME280;11076;47.942;11.804;2022-12-20T23:35:33;94321.00;;;4.58;100.00
21828;BME280;11076;47.942;11.804;2022-12-20T23:40:39;94322.72;;;4.81;100.00
21828;BME280;11076;47.942;11.804;2022-12-20T23:45:41;94331.19;;;4.91;100.00
21828;BME280;11076;47.942;11.804;2022-12-20T23:50:43;94316.31;;;5.27;97.35
21828;BME280;11076;47.942;11.804;2022-12-20T23:56:09;94322.13;;;5.01;97.52
